sensor_id;sensor_type;location;lat;lon;timestamp;P1;durP1;ratioP1;P2;durP2;ratioP2
51489;SDS011;57752;53.574;9.736;2023-08-08T00:01:06;18.23;;;4.03;;
51489;SDS011;57752;53.574;9.736;2023-08-08T00:06:06;11.95;;;3.70;;
51489;SDS011;57752;53.574;9.736;2023-08-08T00:11:07;13.43;;;4.22;;
51489;SDS011;57752;53.574;9.736;2023-08-08T00:16:07;13.27;;;4.13;;
51489;SDS011;57752;53.574;9.736;2023-08-08T00:21:07;18.58;;;4.57;;
51489;SDS011;57752;53.574;9.736;2023-08-08T00:26:07;18.25;;;4.65;;
51489;SDS011;57752;53.574;9.736;2023-08-08T00:31:07;14.95;;;4.35;;
51489;SDS011;57752;53.574;9.736;2023-08-08T00:36:07;16.35;;;4.40;;
51489;SDS011;57752;53.574;9.736;2023-08-08T00:41:08;11.38;;;4.28;;
51489;SDS011;57752;53.574;9.736;2023-08-08T00:46:08;14.32;;;4.35;;
51489;SDS011;57752;53.574;9.736;2023-08-08T00:51:08;12.68;;;4.40;;
51489;SDS011;57752;53.574;9.736;2023-08-08T00:56:08;16.33;;;4.78;;
51489;SDS011;57752;53.574;9.736;2023-08-08T01:01:08;18.42;;;5.20;;
51489;SDS011;57752;53.574;9.736;2023-08-08T01:06:11;13.25;;;4.13;;
51489;SDS011;57752;53.574;9.736;2023-08-08T01:11:13;11.05;;;3.55;;
51489;SDS011;57752;53.574;9.736;2023-08-08T01:16:14;14.70;;;4.05;;
51489;SDS011;57752;53.574;9.736;2023-08-08T01:21:15;14.02;;;4.03;;
51489;SDS011;57752;53.574;9.736;2023-08-08T01:26:15;14.07;;;3.97;;
51489;SDS011;57752;53.574;9.736;2023-08-08T01:31:16;15.18;;;4.20;;
51489;SDS011;57752;53.574;9.736;2023-08-08T01:36:20;16.92;;;4.38;;
51489;SDS011;57752;53.574;9.736;2023-08-08T01:41:22;15.20;;;4.00;;
51489;SDS011;57752;53.574;9.736;2023-08-08T01:46:23;13.15;;;3.78;;
51489;SDS011;57752;53.574;9.736;2023-08-08T01:51:24;15.48;;;3.80;;
51489;SDS011;57752;53.574;9.736;2023-08-08T01:56:25;12.48;;;3.67;;
51489;SDS011;57752;53.574;9.736;2023-08-08T02:01:25;10.18;;;3.45;;
51489;SDS011;57752;53.574;9.736;2023-08-08T02:06:25;14.30;;;3.60;;
51489;SDS011;57752;53.574;9.736;2023-08-08T02:11:25;12.68;;;3.80;;
51489;SDS011;57752;53.574;9.736;2023-08-08T02:16:26;12.00;;;3.28;;
51489;SDS011;57752;53.574;9.736;2023-08-08T02:21:26;14.20;;;3.55;;
51489;SDS011;57752;53.574;9.736;2023-08-08T02:26:26;10.95;;;3.30;;
51489;SDS011;57752;53.574;9.736;2023-08-08T02:31:26;12.38;;;3.65;;
51489;SDS011;57752;53.574;9.736;2023-08-08T02:36:27;11.82;;;3.22;;
51489;SDS011;57752;53.574;9.736;2023-08-08T02:41:27;14.98;;;3.53;;
51489;SDS011;57752;53.574;9.736;2023-08-08T02:46:27;13.70;;;3.60;;
51489;SDS011;57752;53.574;9.736;2023-08-08T02:51:27;10.50;;;3.13;;
51489;SDS011;57752;53.574;9.736;2023-08-08T02:56:27;14.35;;;3.45;;
51489;SDS011;57752;53.574;9.736;2023-08-08T03:01:28;11.35;;;3.42;;
51489;SDS011;57752;53.574;9.736;2023-08-08T03:06:28;10.57;;;3.13;;
51489;SDS011;57752;53.574;9.736;2023-08-08T03:11:28;12.23;;;3.53;;
51489;SDS011;57752;53.574;9.736;2023-08-08T03:16:28;14.57;;;3.60;;
51489;SDS011;57752;53.574;9.736;2023-08-08T03:21:28;17.02;;;3.70;;
51489;SDS011;57752;53.574;9.736;2023-08-08T03:26:28;11.45;;;3.40;;
51489;SDS011;57752;53.574;9.736;2023-08-08T03:31:29;11.10;;;3.25;;
51489;SDS011;57752;53.574;9.736;2023-08-08T03:36:29;10.70;;;3.58;;
51489;SDS011;57752;53.574;9.736;2023-08-08T03:41:29;13.68;;;3.38;;
51489;SDS011;57752;53.574;9.736;2023-08-08T03:46:29;11.45;;;3.88;;
51489;SDS011;57752;53.574;9.736;2023-08-08T03:51:30;13.38;;;3.53;;
51489;SDS011;57752;53.574;9.736;2023-08-08T03:56:30;12.00;;;3.20;;
51489;SDS011;57752;53.574;9.736;2023-08-08T04:01:30;14.88;;;3.40;;
51489;SDS011;57752;53.574;9.736;2023-08-08T04:06:30;10.77;;;3.75;;
51489;SDS011;57752;53.574;9.736;2023-08-08T04:11:30;10.93;;;3.45;;
51489;SDS011;57752;53.574;9.736;2023-08-08T04:16:31;9.83;;;3.10;;
51489;SDS011;57752;53.574;9.736;2023-08-08T04:21:31;11.38;;;3.22;;
51489;SDS011;57752;53.574;9.736;2023-08-08T04:26:34;10.45;;;2.95;;
51489;SDS011;57752;53.574;9.736;2023-08-08T04:31:34;10.02;;;3.20;;
51489;SDS011;57752;53.574;9.736;2023-08-08T04:36:34;14.02;;;3.55;;
51489;SDS011;57752;53.574;9.736;2023-08-08T04:41:34;10.55;;;3.50;;
51489;SDS011;57752;53.574;9.736;2023-08-08T04:46:35;11.52;;;3.05;;
51489;SDS011;57752;53.574;9.736;2023-08-08T04:51:35;10.63;;;3.13;;
51489;SDS011;57752;53.574;9.736;2023-08-08T04:56:35;12.95;;;3.63;;
51489;SDS011;57752;53.574;9.736;2023-08-08T05:01:35;10.15;;;3.08;;
51489;SDS011;57752;53.574;9.736;2023-08-08T05:06:35;10.10;;;3.00;;
51489;SDS011;57752;53.574;9.736;2023-08-08T05:11:36;12.25;;;3.28;;
51489;SDS011;57752;53.574;9.736;2023-08-08T05:16:36;9.40;;;3.00;;
51489;SDS011;57752;53.574;9.736;2023-08-08T05:21:36;10.02;;;2.63;;
51489;SDS011;57752;53.574;9.736;2023-08-08T05:26:36;10.25;;;2.80;;
51489;SDS011;57752;53.574;9.736;2023-08-08T05:31:36;11.93;;;2.65;;
51489;SDS011;57752;53.574;9.736;2023-08-08T05:36:36;8.80;;;2.40;;
51489;SDS011;57752;53.574;9.736;2023-08-08T05:41:37;12.88;;;2.92;;
51489;SDS011;57752;53.574;9.736;2023-08-08T05:46:37;10.77;;;2.45;;
51489;SDS011;57752;53.574;9.736;2023-08-08T05:51:37;11.63;;;3.08;;
51489;SDS011;57752;53.574;9.736;2023-08-08T05:56:37;9.85;;;2.70;;
51489;SDS011;57752;53.574;9.736;2023-08-08T06:01:37;10.48;;;3.05;;
51489;SDS011;57752;53.574;9.736;2023-08-08T06:06:38;12.18;;;3.22;;
51489;SDS011;57752;53.574;9.736;2023-08-08T06:11:38;9.88;;;3.17;;
51489;SDS011;57752;53.574;9.736;2023-08-08T06:16:38;10.85;;;3.10;;
51489;SDS011;57752;53.574;9.736;2023-08-08T06:21:38;9.83;;;2.63;;
51489;SDS011;57752;53.574;9.736;2023-08-08T06:26:38;10.25;;;2.97;;
51489;SDS011;57752;53.574;9.736;2023-08-08T06:31:39;10.27;;;2.80;;
51489;SDS011;57752;53.574;9.736;2023-08-08T06:36:39;10.73;;;2.70;;
51489;SDS011;57752;53.574;9.736;2023-08-08T06:41:39;11.00;;;2.70;;
51489;SDS011;57752;53.574;9.736;2023-08-08T06:46:39;9.23;;;2.63;;
51489;SDS011;57752;53.574;9.736;2023-08-08T06:51:39;8.95;;;2.60;;
51489;SDS011;57752;53.574;9.736;2023-08-08T06:56:39;9.60;;;2.85;;
51489;SDS011;57752;53.574;9.736;2023-08-08T07:01:40;9.90;;;2.47;;
51489;SDS011;57752;53.574;9.736;2023-08-08T07:06:42;10.77;;;2.33;;
51489;SDS011;57752;53.574;9.736;2023-08-08T07:11:42;9.98;;;2.30;;
51489;SDS011;57752;53.574;9.736;2023-08-08T07:16:42;9.10;;;2.47;;
51489;SDS011;57752;53.574;9.736;2023-08-08T07:21:42;6.93;;;2.33;;
51489;SDS011;57752;53.574;9.736;2023-08-08T07:26:43;8.80;;;2.38;;
51489;SDS011;57752;53.574;9.736;2023-08-08T07:31:43;9.77;;;2.35;;
51489;SDS011;57752;53.574;9.736;2023-08-08T07:36:43;10.85;;;2.55;;
51489;SDS011;57752;53.574;9.736;2023-08-08T07:41:43;14.38;;;3.10;;
51489;SDS011;57752;53.574;9.736;2023-08-08T07:46:43;10.30;;;2.65;;
51489;SDS011;57752;53.574;9.736;2023-08-08T07:51:43;10.90;;;3.05;;
51489;SDS011;57752;53.574;9.736;2023-08-08T07:56:44;10.95;;;2.65;;
51489;SDS011;57752;53.574;9.736;2023-08-08T08:01:44;12.45;;;2.95;;
51489;SDS011;57752;53.574;9.736;2023-08-08T08:06:44;11.95;;;3.15;;
51489;SDS011;57752;53.574;9.736;2023-08-08T08:11:44;10.60;;;2.90;;
51489;SDS011;57752;53.574;9.736;2023-08-08T08:16:44;10.93;;;2.75;;
51489;SDS011;57752;53.574;9.736;2023-08-08T08:21:45;8.82;;;2.50;;
51489;SDS011;57752;53.574;9.736;2023-08-08T08:26:45;10.65;;;2.63;;
51489;SDS011;57752;53.574;9.736;2023-08-08T08:31:45;9.57;;;2.30;;
51489;SDS011;57752;53.574;9.736;2023-08-08T08:36:45;10.27;;;2.08;;
51489;SDS011;57752;53.574;9.736;2023-08-08T08:41:47;9.60;;;2.03;;
51489;SDS011;57752;53.574;9.736;2023-08-08T08:51:48;8.93;;;2.17;;
51489;SDS011;57752;53.574;9.736;2023-08-08T08:56:48;8.57;;;2.15;;
51489;SDS011;57752;53.574;9.736;2023-08-08T09:01:49;9.00;;;2.20;;
51489;SDS011;57752;53.574;9.736;2023-08-08T09:06:50;11.15;;;2.28;;
51489;SDS011;57752;53.574;9.736;2023-08-08T09:11:51;6.55;;;1.80;;
51489;SDS011;57752;53.574;9.736;2023-08-08T09:16:53;8.10;;;2.08;;
51489;SDS011;57752;53.574;9.736;2023-08-08T09:21:54;10.38;;;2.70;;
51489;SDS011;57752;53.574;9.736;2023-08-08T09:26:54;7.90;;;1.80;;
51489;SDS011;57752;53.574;9.736;2023-08-08T09:31:54;11.70;;;2.30;;
51489;SDS011;57752;53.574;9.736;2023-08-08T09:36:54;9.32;;;2.00;;
51489;SDS011;57752;53.574;9.736;2023-08-08T09:41:55;8.70;;;2.13;;
51489;SDS011;57752;53.574;9.736;2023-08-08T09:46:56;8.80;;;2.20;;
51489;SDS011;57752;53.574;9.736;2023-08-08T09:51:56;9.10;;;2.10;;
51489;SDS011;57752;53.574;9.736;2023-08-08T09:56:56;10.25;;;2.20;;
51489;SDS011;57752;53.574;9.736;2023-08-08T10:01:56;16.23;;;3.33;;
51489;SDS011;57752;53.574;9.736;2023-08-08T10:06:57;8.48;;;2.20;;
51489;SDS011;57752;53.574;9.736;2023-08-08T10:11:57;10.95;;;2.40;;
51489;SDS011;57752;53.574;9.736;2023-08-08T10:16:58;11.95;;;2.53;;
51489;SDS011;57752;53.574;9.736;2023-08-08T10:22:00;9.35;;;2.45;;
51489;SDS011;57752;53.574;9.736;2023-08-08T10:27:03;10.35;;;2.55;;
51489;SDS011;57752;53.574;9.736;2023-08-08T10:32:05;8.85;;;2.30;;
51489;SDS011;57752;53.574;9.736;2023-08-08T10:37:08;12.38;;;2.88;;
51489;SDS011;57752;53.574;9.736;2023-08-08T10:42:09;9.30;;;2.45;;
51489;SDS011;57752;53.574;9.736;2023-08-08T10:47:10;11.50;;;2.55;;
51489;SDS011;57752;53.574;9.736;2023-08-08T10:52:13;12.48;;;2.63;;
51489;SDS011;57752;53.574;9.736;2023-08-08T10:57:15;8.52;;;2.25;;
51489;SDS011;57752;53.574;9.736;2023-08-08T11:02:15;9.10;;;2.20;;
51489;SDS011;57752;53.574;9.736;2023-08-08T11:07:15;11.70;;;2.55;;
51489;SDS011;57752;53.574;9.736;2023-08-08T11:12:16;9.33;;;2.23;;
51489;SDS011;57752;53.574;9.736;2023-08-08T11:17:16;8.25;;;2.50;;
51489;SDS011;57752;53.574;9.736;2023-08-08T11:22:16;8.38;;;2.60;;
51489;SDS011;57752;53.574;9.736;2023-08-08T11:27:16;10.50;;;2.50;;
51489;SDS011;57752;53.574;9.736;2023-08-08T11:32:16;9.70;;;2.42;;
51489;SDS011;57752;53.574;9.736;2023-08-08T11:37:16;9.60;;;2.25;;
51489;SDS011;57752;53.574;9.736;2023-08-08T11:42:17;9.20;;;2.20;;
51489;SDS011;57752;53.574;9.736;2023-08-08T11:47:23;8.98;;;2.20;;
51489;SDS011;57752;53.574;9.736;2023-08-08T11:52:24;9.77;;;2.92;;
51489;SDS011;57752;53.574;9.736;2023-08-08T11:57:24;11.80;;;2.40;;
51489;SDS011;57752;53.574;9.736;2023-08-08T12:02:25;9.68;;;2.40;;
51489;SDS011;57752;53.574;9.736;2023-08-08T12:07:25;9.02;;;2.60;;
51489;SDS011;57752;53.574;9.736;2023-08-08T12:12:26;10.10;;;2.30;;
51489;SDS011;57752;53.574;9.736;2023-08-08T12:17:26;10.55;;;2.40;;
51489;SDS011;57752;53.574;9.736;2023-08-08T12:22:26;10.95;;;2.75;;
51489;SDS011;57752;53.574;9.736;2023-08-08T12:27:26;11.98;;;2.53;;
51489;SDS011;57752;53.574;9.736;2023-08-08T12:32:27;10.20;;;2.40;;
51489;SDS011;57752;53.574;9.736;2023-08-08T12:37:28;12.10;;;2.58;;
51489;SDS011;57752;53.574;9.736;2023-08-08T12:42:28;12.57;;;2.72;;
51489;SDS011;57752;53.574;9.736;2023-08-08T12:47:28;10.52;;;2.60;;
51489;SDS011;57752;53.574;9.736;2023-08-08T12:52:29;13.40;;;2.50;;
51489;SDS011;57752;53.574;9.736;2023-08-08T12:57:29;12.23;;;3.28;;
51489;SDS011;57752;53.574;9.736;2023-08-08T13:02:29;13.10;;;3.08;;
51489;SDS011;57752;53.574;9.736;2023-08-08T13:07:29;13.75;;;3.30;;
51489;SDS011;57752;53.574;9.736;2023-08-08T13:12:30;17.48;;;3.55;;
51489;SDS011;57752;53.574;9.736;2023-08-08T13:17:30;13.90;;;3.85;;
51489;SDS011;57752;53.574;9.736;2023-08-08T13:22:30;14.25;;;3.78;;
51489;SDS011;57752;53.574;9.736;2023-08-08T13:27:30;15.18;;;3.38;;
51489;SDS011;57752;53.574;9.736;2023-08-08T13:32:31;13.77;;;2.85;;
51489;SDS011;57752;53.574;9.736;2023-08-08T13:37:31;12.95;;;3.38;;
51489;SDS011;57752;53.574;9.736;2023-08-08T13:42:31;10.27;;;2.50;;
51489;SDS011;57752;53.574;9.736;2023-08-08T13:47:31;14.45;;;3.30;;
51489;SDS011;57752;53.574;9.736;2023-08-08T13:52:31;11.60;;;2.90;;
51489;SDS011;57752;53.574;9.736;2023-08-08T13:57:32;12.05;;;2.45;;
51489;SDS011;57752;53.574;9.736;2023-08-08T14:02:33;10.93;;;2.60;;
51489;SDS011;57752;53.574;9.736;2023-08-08T14:07:33;12.70;;;2.60;;
51489;SDS011;57752;53.574;9.736;2023-08-08T14:12:34;11.95;;;2.80;;
51489;SDS011;57752;53.574;9.736;2023-08-08T14:17:34;10.38;;;2.67;;
51489;SDS011;57752;53.574;9.736;2023-08-08T14:22:34;13.60;;;2.70;;
51489;SDS011;57752;53.574;9.736;2023-08-08T14:27:34;14.18;;;3.50;;
51489;SDS011;57752;53.574;9.736;2023-08-08T14:32:34;11.25;;;2.60;;
51489;SDS011;57752;53.574;9.736;2023-08-08T14:37:35;12.27;;;2.50;;
51489;SDS011;57752;53.574;9.736;2023-08-08T14:42:35;12.68;;;2.80;;
51489;SDS011;57752;53.574;9.736;2023-08-08T14:47:35;8.98;;;2.50;;
51489;SDS011;57752;53.574;9.736;2023-08-08T14:52:35;12.35;;;2.80;;
51489;SDS011;57752;53.574;9.736;2023-08-08T14:57:35;12.65;;;2.60;;
51489;SDS011;57752;53.574;9.736;2023-08-08T15:02:35;12.25;;;2.40;;
51489;SDS011;57752;53.574;9.736;2023-08-08T15:07:36;11.50;;;2.42;;
51489;SDS011;57752;53.574;9.736;2023-08-08T15:12:36;13.32;;;2.63;;
51489;SDS011;57752;53.574;9.736;2023-08-08T15:17:36;10.02;;;2.40;;
51489;SDS011;57752;53.574;9.736;2023-08-08T15:22:36;13.15;;;3.10;;
51489;SDS011;57752;53.574;9.736;2023-08-08T15:27:37;12.68;;;2.75;;
51489;SDS011;57752;53.574;9.736;2023-08-08T15:32:37;16.23;;;3.22;;
51489;SDS011;57752;53.574;9.736;2023-08-08T15:37:37;14.00;;;3.00;;
51489;SDS011;57752;53.574;9.736;2023-08-08T15:42:38;11.43;;;2.80;;
51489;SDS011;57752;53.574;9.736;2023-08-08T15:47:40;10.87;;;3.30;;
51489;SDS011;57752;53.574;9.736;2023-08-08T15:52:40;13.55;;;3.17;;
51489;SDS011;57752;53.574;9.736;2023-08-08T15:57:40;12.77;;;3.42;;
51489;SDS011;57752;53.574;9.736;2023-08-08T16:02:41;16.75;;;3.28;;
51489;SDS011;57752;53.574;9.736;2023-08-08T16:07:41;10.25;;;2.95;;
51489;SDS011;57752;53.574;9.736;2023-08-08T16:12:41;12.32;;;2.85;;
51489;SDS011;57752;53.574;9.736;2023-08-08T16:17:42;12.00;;;3.20;;
51489;SDS011;57752;53.574;9.736;2023-08-08T16:22:42;11.25;;;2.75;;
51489;SDS011;57752;53.574;9.736;2023-08-08T16:27:42;17.38;;;3.30;;
51489;SDS011;57752;53.574;9.736;2023-08-08T16:32:42;14.57;;;3.70;;
51489;SDS011;57752;53.574;9.736;2023-08-08T16:37:43;15.52;;;2.90;;
51489;SDS011;57752;53.574;9.736;2023-08-08T16:42:43;13.00;;;3.25;;
51489;SDS011;57752;53.574;9.736;2023-08-08T16:47:44;18.83;;;3.70;;
51489;SDS011;57752;53.574;9.736;2023-08-08T16:52:44;10.95;;;3.03;;
51489;SDS011;57752;53.574;9.736;2023-08-08T16:57:44;14.40;;;3.30;;
51489;SDS011;57752;53.574;9.736;2023-08-08T17:02:45;16.35;;;3.50;;
51489;SDS011;57752;53.574;9.736;2023-08-08T17:07:45;15.15;;;3.40;;
51489;SDS011;57752;53.574;9.736;2023-08-08T17:12:45;15.68;;;3.55;;
51489;SDS011;57752;53.574;9.736;2023-08-08T17:17:45;15.50;;;3.22;;
51489;SDS011;57752;53.574;9.736;2023-08-08T17:22:45;13.85;;;3.35;;
51489;SDS011;57752;53.574;9.736;2023-08-08T17:27:46;11.35;;;2.80;;
51489;SDS011;57752;53.574;9.736;2023-08-08T17:32:47;15.00;;;3.42;;
51489;SDS011;57752;53.574;9.736;2023-08-08T17:37:47;13.18;;;3.00;;
51489;SDS011;57752;53.574;9.736;2023-08-08T17:42:48;14.20;;;3.05;;
51489;SDS011;57752;53.574;9.736;2023-08-08T17:47:48;13.18;;;2.72;;
51489;SDS011;57752;53.574;9.736;2023-08-08T17:52:48;18.25;;;3.42;;
51489;SDS011;57752;53.574;9.736;2023-08-08T17:57:48;13.25;;;2.80;;
51489;SDS011;57752;53.574;9.736;2023-08-08T18:02:48;13.35;;;3.22;;
51489;SDS011;57752;53.574;9.736;2023-08-08T18:07:48;12.73;;;2.95;;
51489;SDS011;57752;53.574;9.736;2023-08-08T18:12:49;13.37;;;3.10;;
51489;SDS011;57752;53.574;9.736;2023-08-08T18:17:49;9.70;;;2.63;;
51489;SDS011;57752;53.574;9.736;2023-08-08T18:22:49;9.80;;;2.70;;
51489;SDS011;57752;53.574;9.736;2023-08-08T18:27:51;11.85;;;3.28;;
51489;SDS011;57752;53.574;9.736;2023-08-08T18:32:52;14.27;;;3.40;;
51489;SDS011;57752;53.574;9.736;2023-08-08T18:37:52;12.68;;;3.05;;
51489;SDS011;57752;53.574;9.736;2023-08-08T18:42:52;14.63;;;2.85;;
51489;SDS011;57752;53.574;9.736;2023-08-08T18:47:52;13.60;;;2.80;;
51489;SDS011;57752;53.574;9.736;2023-08-08T18:52:52;13.23;;;2.78;;
51489;SDS011;57752;53.574;9.736;2023-08-08T18:57:53;12.18;;;2.70;;
51489;SDS011;57752;53.574;9.736;2023-08-08T19:02:53;11.77;;;2.60;;
51489;SDS011;57752;53.574;9.736;2023-08-08T19:07:53;15.13;;;2.92;;
51489;SDS011;57752;53.574;9.736;2023-08-08T19:12:56;15.07;;;3.78;;
51489;SDS011;57752;53.574;9.736;2023-08-08T19:17:57;12.82;;;2.97;;
51489;SDS011;57752;53.574;9.736;2023-08-08T19:22:57;14.32;;;3.08;;
51489;SDS011;57752;53.574;9.736;2023-08-08T19:27:57;14.10;;;3.13;;
51489;SDS011;57752;53.574;9.736;2023-08-08T19:32:57;14.52;;;3.20;;
51489;SDS011;57752;53.574;9.736;2023-08-08T19:37:57;11.65;;;2.90;;
51489;SDS011;57752;53.574;9.736;2023-08-08T19:42:57;11.43;;;3.20;;
51489;SDS011;57752;53.574;9.736;2023-08-08T19:47:57;17.83;;;3.67;;
51489;SDS011;57752;53.574;9.736;2023-08-08T19:52:58;15.05;;;3.58;;
51489;SDS011;57752;53.574;9.736;2023-08-08T19:57:58;14.07;;;3.08;;
51489;SDS011;57752;53.574;9.736;2023-08-08T20:08:01;13.63;;;3.15;;
51489;SDS011;57752;53.574;9.736;2023-08-08T20:13:01;14.00;;;3.10;;
51489;SDS011;57752;53.574;9.736;2023-08-08T20:18:02;14.73;;;3.10;;
51489;SDS011;57752;53.574;9.736;2023-08-08T20:23:02;17.40;;;3.25;;
51489;SDS011;57752;53.574;9.736;2023-08-08T20:28:03;12.20;;;3.17;;
51489;SDS011;57752;53.574;9.736;2023-08-08T20:33:04;13.05;;;3.75;;
51489;SDS011;57752;53.574;9.736;2023-08-08T20:38:04;14.73;;;2.90;;
51489;SDS011;57752;53.574;9.736;2023-08-08T20:43:05;16.60;;;3.42;;
51489;SDS011;57752;53.574;9.736;2023-08-08T20:48:05;14.98;;;3.38;;
51489;SDS011;57752;53.574;9.736;2023-08-08T20:53:05;11.07;;;3.58;;
51489;SDS011;57752;53.574;9.736;2023-08-08T20:58:05;11.95;;;3.58;;
51489;SDS011;57752;53.574;9.736;2023-08-08T21:03:07;20.33;;;3.50;;
51489;SDS011;57752;53.574;9.736;2023-08-08T21:08:07;12.25;;;3.65;;
51489;SDS011;57752;53.574;9.736;2023-08-08T21:13:08;15.55;;;3.72;;
51489;SDS011;57752;53.574;9.736;2023-08-08T21:18:08;17.40;;;4.18;;
51489;SDS011;57752;53.574;9.736;2023-08-08T21:23:08;13.88;;;3.45;;
51489;SDS011;57752;53.574;9.736;2023-08-08T21:28:08;17.00;;;3.55;;
51489;SDS011;57752;53.574;9.736;2023-08-08T21:33:08;14.00;;;3.80;;
51489;SDS011;57752;53.574;9.736;2023-08-08T21:38:08;17.75;;;3.83;;
51489;SDS011;57752;53.574;9.736;2023-08-08T21:43:11;14.20;;;3.78;;
51489;SDS011;57752;53.574;9.736;2023-08-08T21:48:11;15.38;;;3.95;;
51489;SDS011;57752;53.574;9.736;2023-08-08T21:53:11;16.50;;;3.33;;
51489;SDS011;57752;53.574;9.736;2023-08-08T21:58:11;17.20;;;5.13;;
51489;SDS011;57752;53.574;9.736;2023-08-08T22:03:11;19.02;;;4.35;;
51489;SDS011;57752;53.574;9.736;2023-08-08T22:08:12;19.20;;;4.68;;
51489;SDS011;57752;53.574;9.736;2023-08-08T22:13:12;10.85;;;3.50;;
51489;SDS011;57752;53.574;9.736;2023-08-08T22:18:13;16.35;;;3.90;;
51489;SDS011;57752;53.574;9.736;2023-08-08T22:23:14;15.90;;;3.70;;
51489;SDS011;57752;53.574;9.736;2023-08-08T22:28:14;11.43;;;3.50;;
51489;SDS011;57752;53.574;9.736;2023-08-08T22:33:14;18.10;;;3.75;;
51489;SDS011;57752;53.574;9.736;2023-08-08T22:38:14;15.68;;;3.80;;
51489;SDS011;57752;53.574;9.736;2023-08-08T22:43:14;13.90;;;3.28;;
51489;SDS011;57752;53.574;9.736;2023-08-08T22:48:14;11.98;;;3.53;;
51489;SDS011;57752;53.574;9.736;2023-08-08T22:53:15;16.70;;;3.33;;
51489;SDS011;57752;53.574;9.736;2023-08-08T22:58:15;18.13;;;3.58;;
51489;SDS011;57752;53.574;9.736;2023-08-08T23:03:15;14.98;;;3.22;;
51489;SDS011;57752;53.574;9.736;2023-08-08T23:08:16;14.82;;;3.45;;
51489;SDS011;57752;53.574;9.736;2023-08-08T23:13:23;11.60;;;3.40;;
51489;SDS011;57752;53.574;9.736;2023-08-08T23:18:23;12.80;;;3.60;;
51489;SDS011;57752;53.574;9.736;2023-08-08T23:23:23;13.95;;;3.20;;
51489;SDS011;57752;53.574;9.736;2023-08-08T23:28:23;13.27;;;3.08;;
51489;SDS011;57752;53.574;9.736;2023-08-08T23:33:24;14.57;;;3.28;;
51489;SDS011;57752;53.574;9.736;2023-08-08T23:38:24;15.73;;;3.40;;
51489;SDS011;57752;53.574;9.736;2023-08-08T23:43:24;14.20;;;3.53;;
51489;SDS011;57752;53.574;9.736;2023-08-08T23:48:24;15.43;;;3.63;;
51489;SDS011;57752;53.574;9.736;2023-08-08T23:53:24;12.82;;;3.47;;
51489;SDS011;57752;53.574;9.736;2023-08-08T23:58:24;11.15;;;2.85;;
